createdAt,value
2017-04-21T00:00:49.217Z,19.55
2017-04-21T00:01:50.007Z,21.22
2017-04-21T00:02:50.815Z,21.28
2017-04-21T00:03:50.907Z,18.85
2017-04-21T00:04:51.299Z,19.77
2017-04-21T00:05:50.580Z,20.10
2017-04-21T00:06:50.583Z,20.97
2017-04-21T00:07:51.397Z,19.93
2017-04-21T00:08:51.413Z,22.17
2017-04-21T00:09:51.848Z,21.83
2017-04-21T00:10:51.921Z,21.65
2017-04-21T00:11:51.923Z,22.07
2017-04-21T00:12:51.969Z,19.75
2017-04-21T00:13:52.007Z,19.68
2017-04-21T00:14:52.398Z,21.30
2017-04-21T00:15:52.420Z,20.87
2017-04-21T00:16:52.637Z,22.55
2017-04-21T00:17:52.767Z,22.65
2017-04-21T00:18:52.809Z,21.85
2017-04-21T00:19:54.068Z,23.38
2017-04-21T00:20:54.124Z,25.18
2017-04-21T00:21:54.166Z,23.03
2017-04-21T00:22:54.956Z,22.88
2017-04-21T00:23:55.407Z,21.73
2017-04-21T00:24:55.839Z,23.70
2017-04-21T00:25:56.072Z,22.25
2017-04-21T00:26:56.325Z,22.55
2017-04-21T00:27:56.510Z,22.42
2017-04-21T00:28:56.534Z,21.58
2017-04-21T00:29:57.001Z,21.05
2017-04-21T00:30:57.044Z,23.23
2017-04-21T00:31:57.123Z,20.40
2017-04-21T00:32:57.272Z,23.58
2017-04-21T00:33:57.345Z,22.70
2017-04-21T00:34:57.773Z,22.38
2017-04-21T00:35:57.898Z,22.08
2017-04-21T00:36:58.089Z,20.53
2017-04-21T00:37:58.287Z,20.70
2017-04-21T00:38:58.371Z,22.83
2017-04-21T00:39:58.888Z,22.60
2017-04-21T00:40:59.633Z,21.17
2017-04-21T00:42:00.347Z,23.20
2017-04-21T00:43:00.392Z,22.65
2017-04-21T00:44:00.538Z,23.28
2017-04-21T00:45:02.405Z,18.88
2017-04-21T00:46:02.457Z,24.33
2017-04-21T00:47:02.468Z,23.25
2017-04-21T00:48:03.342Z,22.32
2017-04-21T00:49:04.075Z,24.18
2017-04-21T00:50:04.468Z,22.73
2017-04-21T00:51:05.265Z,23.97
2017-04-21T00:52:05.331Z,21.48
2017-04-21T00:53:05.482Z,23.63
2017-04-21T00:54:05.519Z,22.97
2017-04-21T00:55:05.908Z,22.00
2017-04-21T00:56:05.962Z,24.03
2017-04-21T00:57:05.991Z,23.67
2017-04-21T00:58:06.070Z,22.55
2017-04-21T00:59:06.137Z,21.63
2017-04-21T01:00:06.490Z,21.20
2017-04-21T01:01:06.657Z,23.03
2017-04-21T01:02:06.712Z,21.80
2017-04-21T01:03:07.589Z,21.77
2017-04-21T01:04:07.693Z,23.10
2017-04-21T01:05:08.064Z,22.92
2017-04-21T01:06:08.113Z,23.97
2017-04-21T01:07:08.277Z,21.43
2017-04-21T01:08:08.527Z,24.20
2017-04-21T01:09:08.477Z,22.65
2017-04-21T01:10:08.842Z,23.27
2017-04-21T01:11:08.922Z,24.18
2017-04-21T01:12:09.014Z,24.25
2017-04-21T01:13:09.794Z,23.72
2017-04-21T01:14:09.917Z,23.23
2017-04-21T01:15:10.470Z,22.63
2017-04-21T01:16:11.289Z,22.57
2017-04-21T01:17:11.349Z,23.90
2017-04-21T01:18:11.486Z,24.02
2017-04-21T01:19:11.528Z,22.58
2017-04-21T01:20:11.958Z,25.18
2017-04-21T01:21:12.006Z,22.82
2017-04-21T01:22:12.051Z,23.07
2017-04-21T01:23:13.569Z,24.77
2017-04-21T01:24:13.569Z,23.18
2017-04-21T01:25:14.801Z,23.62
2017-04-21T01:26:14.945Z,21.53
2017-04-21T01:27:15.033Z,23.75
2017-04-21T01:28:15.110Z,24.15
2017-04-21T01:29:15.114Z,25.13
2017-04-21T01:30:15.502Z,25.15
2017-04-21T01:31:15.609Z,24.33
2017-04-21T01:32:15.637Z,24.35
2017-04-21T01:33:15.677Z,25.02
2017-04-21T01:34:15.683Z,24.25
2017-04-21T01:35:16.024Z,23.85
2017-04-21T01:36:16.080Z,26.22
2017-04-21T01:37:16.190Z,24.03
2017-04-21T01:38:16.250Z,24.55
2017-04-21T01:39:17.118Z,25.53
2017-04-21T01:40:17.606Z,23.23
2017-04-21T01:41:17.640Z,24.88
2017-04-21T01:42:17.701Z,23.07
2017-04-21T01:43:18.497Z,25.23
2017-04-21T01:44:18.551Z,24.68
2017-04-21T01:45:18.964Z,25.90
2017-04-21T01:46:19.066Z,27.17
2017-04-21T01:47:19.844Z,22.05
2017-04-21T01:48:19.834Z,25.88
2017-04-21T01:49:19.905Z,25.40
2017-04-21T01:50:20.258Z,25.75
2017-04-21T01:51:20.318Z,24.93
2017-04-21T01:52:20.431Z,23.67
2017-04-21T01:53:21.336Z,22.22
2017-04-21T01:54:21.473Z,26.97
2017-04-21T01:55:22.317Z,25.42
2017-04-21T01:56:22.458Z,25.80
2017-04-21T01:57:22.544Z,27.87
2017-04-21T01:58:22.631Z,25.95
2017-04-21T01:59:22.694Z,25.57
2017-04-21T02:00:22.753Z,21.95
2017-04-21T02:01:22.878Z,26.53
2017-04-21T02:02:23.030Z,26.23
2017-04-21T02:03:23.097Z,24.28
2017-04-21T02:04:23.142Z,26.97
2017-04-21T02:05:23.195Z,23.45
2017-04-21T02:06:23.231Z,24.70
2017-04-21T02:07:23.326Z,24.38
2017-04-21T02:08:23.337Z,25.15
2017-04-21T02:09:23.370Z,28.38
2017-04-21T02:10:23.434Z,25.85
2017-04-21T02:11:23.488Z,28.65
2017-04-21T02:12:23.530Z,26.52
2017-04-21T02:13:23.621Z,24.93
2017-04-21T02:14:23.663Z,28.53
2017-04-21T02:15:24.068Z,26.35
2017-04-21T02:16:24.900Z,26.95
2017-04-21T02:17:24.994Z,28.08
2017-04-21T02:18:25.024Z,28.15
2017-04-21T02:19:25.105Z,27.10
2017-04-21T02:20:25.430Z,28.63
2017-04-21T02:21:26.348Z,27.52
2017-04-21T02:22:26.513Z,28.77
2017-04-21T02:23:26.533Z,27.52
2017-04-21T02:24:26.628Z,29.87
2017-04-21T02:25:26.726Z,28.73
2017-04-21T02:26:26.797Z,30.82
2017-04-21T02:27:26.889Z,28.05
2017-04-21T02:28:27.023Z,27.72
2017-04-21T02:29:27.154Z,31.25
2017-04-21T02:30:27.563Z,29.37
2017-04-21T02:31:27.581Z,29.40
2017-04-21T02:32:27.675Z,28.90
2017-04-21T02:33:27.729Z,27.83
2017-04-21T02:34:28.018Z,32.30
2017-04-21T02:35:28.258Z,30.97
2017-04-21T02:36:28.308Z,31.03
2017-04-21T02:37:28.382Z,25.60
2017-04-21T02:38:28.482Z,30.95
2017-04-21T02:39:28.612Z,30.48
2017-04-21T02:40:29.058Z,30.92
2017-04-21T02:41:29.118Z,30.52
2017-04-21T02:42:29.193Z,30.63
2017-04-21T02:43:29.241Z,29.87
2017-04-21T02:44:29.287Z,31.35
2017-04-21T02:45:29.832Z,31.17
2017-04-21T02:46:29.877Z,27.52
2017-04-21T02:47:29.998Z,31.47
2017-04-21T02:48:30.142Z,31.88
2017-04-21T02:49:30.144Z,31.83
2017-04-21T02:50:30.517Z,32.05
2017-04-21T02:51:30.595Z,33.68
2017-04-21T02:52:30.649Z,34.45
2017-04-21T02:53:30.673Z,31.27
2017-04-21T02:54:30.736Z,29.32
2017-04-21T02:55:31.427Z,31.58
2017-04-21T02:56:31.460Z,27.48
2017-04-21T02:57:31.498Z,30.83
2017-04-21T02:58:31.596Z,32.05
2017-04-21T02:59:31.704Z,32.42
2017-04-21T03:00:32.511Z,30.03
2017-04-21T03:01:32.548Z,33.53
2017-04-21T03:02:33.351Z,33.45
2017-04-21T03:03:33.444Z,32.30
2017-04-21T03:04:33.497Z,34.30
2017-04-21T03:05:34.858Z,37.05
2017-04-21T03:06:35.009Z,34.67
2017-04-21T03:07:35.088Z,33.50
2017-04-21T03:08:35.067Z,33.97
2017-04-21T03:09:35.236Z,27.07
2017-04-21T03:10:35.250Z,37.82
2017-04-21T03:11:35.350Z,36.47
2017-04-21T03:12:35.369Z,35.58
2017-04-21T03:13:35.420Z,35.88
2017-04-21T03:14:35.589Z,35.80
2017-04-21T03:15:35.662Z,36.02
2017-04-21T03:16:35.734Z,37.28
2017-04-21T03:17:35.725Z,37.23
2017-04-21T03:18:36.492Z,37.78
2017-04-21T03:19:36.563Z,37.15
2017-04-21T03:20:37.470Z,37.28
2017-04-21T03:21:37.505Z,37.45
2017-04-21T03:22:38.422Z,35.75
2017-04-21T03:23:38.455Z,39.33
2017-04-21T03:24:38.583Z,36.90
2017-04-21T03:25:38.711Z,39.03
2017-04-21T03:26:38.750Z,39.35
2017-04-21T03:27:38.796Z,36.33
2017-04-21T03:28:38.922Z,38.07
2017-04-21T03:29:38.945Z,38.25
2017-04-21T03:30:38.971Z,37.98
2017-04-21T03:31:39.017Z,39.02
2017-04-21T03:32:39.053Z,37.83
2017-04-21T03:33:39.061Z,39.93
2017-04-21T03:34:39.170Z,40.70
2017-04-21T03:35:39.542Z,42.50
2017-04-21T03:36:39.555Z,39.13
2017-04-21T03:37:39.501Z,46.00
2017-04-21T03:38:39.555Z,40.20
2017-04-21T03:39:39.565Z,43.03
2017-04-21T03:40:40.057Z,41.90
2017-04-21T03:41:40.207Z,42.42
2017-04-21T03:42:40.244Z,41.57
2017-04-21T03:43:40.390Z,40.70
2017-04-21T03:44:40.427Z,43.82
2017-04-21T03:45:40.807Z,42.63
2017-04-21T03:46:40.887Z,39.70
2017-04-21T03:47:40.967Z,41.13
2017-04-21T03:48:41.055Z,41.57
2017-04-21T03:49:41.079Z,42.33
2017-04-21T03:50:41.476Z,41.62
2017-04-21T03:51:41.535Z,42.53
2017-04-21T03:52:41.620Z,40.93
2017-04-21T03:53:41.768Z,42.60
2017-04-21T03:54:41.791Z,45.23
2017-04-21T03:55:42.910Z,44.30
2017-04-21T03:56:42.970Z,43.60
2017-04-21T03:57:43.038Z,43.30
2017-04-21T03:58:43.077Z,44.63
2017-04-21T03:59:43.194Z,44.17
2017-04-21T04:00:43.505Z,44.43
2017-04-21T04:01:43.509Z,46.50
2017-04-21T04:02:43.508Z,41.60
2017-04-21T04:03:43.485Z,39.38
2017-04-21T04:04:43.561Z,43.13
2017-04-21T04:05:45.014Z,44.87
2017-04-21T04:06:45.041Z,47.43
2017-04-21T04:07:45.137Z,48.02
2017-04-21T04:08:45.198Z,43.95
2017-04-21T04:09:45.215Z,44.08
2017-04-21T04:10:45.604Z,46.58
2017-04-21T04:11:45.782Z,46.08
2017-04-21T04:12:45.818Z,47.68
2017-04-21T04:13:45.859Z,47.62
2017-04-21T04:14:45.939Z,47.43
2017-04-21T04:15:46.256Z,48.73
2017-04-21T04:16:50.487Z,46.25
2017-04-21T04:17:50.539Z,45.02
2017-04-21T04:18:50.885Z,46.87
2017-04-21T04:19:51.033Z,50.02
2017-04-21T04:20:51.472Z,47.87
2017-04-21T04:21:51.520Z,48.72
2017-04-21T04:22:51.538Z,49.82
2017-04-21T04:23:51.663Z,48.28
2017-04-21T04:24:51.727Z,48.77
2017-04-21T04:25:52.123Z,46.33
2017-04-21T04:26:53.079Z,44.68
2017-04-21T04:28:02.920Z,44.32
2017-04-21T04:29:03.094Z,50.00
2017-04-21T04:30:03.119Z,46.72
2017-04-21T04:31:03.622Z,45.32
2017-04-21T04:32:03.666Z,46.30
2017-04-21T04:33:03.803Z,48.00
2017-04-21T04:34:03.938Z,52.42
2017-04-21T04:35:04.038Z,47.32
2017-04-21T04:36:04.397Z,46.98
2017-04-21T04:37:04.434Z,46.58
2017-04-21T04:38:04.490Z,47.95
2017-04-21T04:39:04.900Z,43.30
2017-04-21T04:40:04.979Z,48.60
2017-04-21T04:41:06.052Z,46.62
2017-04-21T04:42:06.935Z,48.00
2017-04-21T04:43:07.018Z,46.83
2017-04-21T04:44:07.062Z,48.50
2017-04-21T04:45:07.121Z,44.93
2017-04-21T04:46:07.556Z,48.15
2017-04-21T04:47:07.573Z,46.43
2017-04-21T04:48:07.584Z,51.83
2017-04-21T04:49:07.595Z,46.17
2017-04-21T04:50:07.590Z,47.13
2017-04-21T04:51:07.913Z,49.02
2017-04-21T04:52:08.016Z,44.68
2017-04-21T04:53:32.791Z,48.25
2017-04-21T04:54:32.872Z,50.72
2017-04-21T04:55:33.598Z,48.97
2017-04-21T04:56:33.746Z,49.35
2017-04-21T04:57:33.817Z,45.35
2017-04-21T04:58:33.851Z,44.37
2017-04-21T04:59:34.131Z,47.12
2017-04-21T05:00:34.106Z,47.37
2017-04-21T05:01:34.184Z,47.92
2017-04-21T05:02:34.194Z,45.57
2017-04-21T05:03:34.586Z,47.38
2017-04-21T05:04:34.647Z,50.07
2017-04-21T05:05:34.748Z,45.57
2017-04-21T05:06:35.563Z,48.63
2017-04-21T05:07:35.607Z,45.88
2017-04-21T05:08:36.380Z,48.00
2017-04-21T05:09:36.546Z,48.03
2017-04-21T05:10:37.338Z,50.40
2017-04-21T05:11:37.406Z,48.10
2017-04-21T05:12:37.390Z,44.78
2017-04-21T05:13:37.423Z,43.42
2017-04-21T05:14:37.553Z,45.80
2017-04-21T05:15:38.392Z,48.12
2017-04-21T05:16:38.483Z,42.37
2017-04-21T05:17:38.702Z,46.07
2017-04-21T05:18:38.803Z,44.25
2017-04-21T05:19:39.010Z,49.72
2017-04-21T05:20:39.181Z,46.57
2017-04-21T05:21:39.956Z,47.22
2017-04-21T05:22:40.035Z,47.47
2017-04-21T05:23:40.062Z,48.07
2017-04-21T05:24:40.127Z,47.07
2017-04-21T05:25:40.161Z,44.45
2017-04-21T05:26:40.166Z,47.22
2017-04-21T05:27:40.675Z,44.92
2017-04-21T05:28:40.721Z,45.22
2017-04-21T05:29:40.804Z,47.10
2017-04-21T05:30:46.929Z,44.65
2017-04-21T05:31:47.000Z,45.40
2017-04-21T05:32:47.098Z,44.72
2017-04-21T05:33:47.158Z,44.18
2017-04-21T05:34:47.252Z,41.03
2017-04-21T05:35:48.140Z,47.60
2017-04-21T05:36:48.241Z,45.55
2017-04-21T05:37:48.268Z,44.22
2017-04-21T05:38:48.277Z,44.33
2017-04-21T05:39:48.350Z,45.90
2017-04-21T05:40:48.449Z,48.15
2017-04-21T05:41:48.909Z,48.65
2017-04-21T05:42:49.184Z,45.03
2017-04-21T05:43:49.308Z,46.65
2017-04-21T05:44:49.355Z,46.42
2017-04-21T05:45:50.139Z,45.95
2017-04-21T05:46:50.386Z,44.00
2017-04-21T05:47:51.190Z,47.72
2017-04-21T05:48:51.295Z,46.00
2017-04-21T05:49:51.355Z,43.17
2017-04-21T05:50:51.516Z,45.12
2017-04-21T05:51:52.347Z,46.58
2017-04-21T05:52:52.463Z,43.48
2017-04-21T05:53:52.552Z,47.05
2017-04-21T05:54:52.558Z,45.67
2017-04-21T05:55:53.743Z,47.67
2017-04-21T05:56:53.906Z,45.17
2017-04-21T05:57:53.921Z,46.75
2017-04-21T05:58:54.006Z,47.32
2017-04-21T05:59:54.069Z,46.90
2017-04-21T06:00:54.892Z,45.80
2017-04-21T06:01:55.698Z,46.07
2017-04-21T06:02:56.091Z,44.02
2017-04-21T06:03:56.162Z,44.98
2017-04-21T06:05:03.532Z,46.92
2017-04-21T06:06:03.607Z,45.12
2017-04-21T06:07:03.705Z,47.22
2017-04-21T06:08:03.748Z,48.03
2017-04-21T06:09:04.798Z,41.63
2017-04-21T06:10:05.047Z,45.08
2017-04-21T06:11:05.199Z,46.67
2017-04-21T06:12:06.703Z,48.98
2017-04-21T06:13:06.842Z,48.67
2017-04-21T06:14:07.023Z,46.33
2017-04-21T06:15:07.075Z,46.38
2017-04-21T06:16:07.874Z,45.98
2017-04-21T06:17:07.939Z,45.07
2017-04-21T06:18:08.106Z,48.32
2017-04-21T06:19:08.219Z,47.35
2017-04-21T06:20:09.033Z,46.55
2017-04-21T06:21:09.218Z,43.57
2017-04-21T06:22:09.314Z,46.18
2017-04-21T06:23:09.368Z,43.50
2017-04-21T06:24:10.230Z,46.75
2017-04-21T06:25:10.295Z,41.98
2017-04-21T06:26:11.026Z,40.88
2017-04-21T06:27:11.981Z,46.15
2017-04-21T06:28:11.981Z,40.32
2017-04-21T06:29:12.073Z,43.98
2017-04-21T06:30:12.925Z,46.97
2017-04-21T06:31:12.964Z,44.85
2017-04-21T06:32:13.066Z,44.00
2017-04-21T06:33:13.135Z,45.53
2017-04-21T06:34:13.170Z,44.40
2017-04-21T06:35:13.204Z,45.58
2017-04-21T06:36:13.322Z,44.40
2017-04-21T06:37:14.123Z,44.50
2017-04-21T06:38:14.187Z,45.90
2017-04-21T06:39:14.354Z,43.68
2017-04-21T06:40:14.462Z,43.93
2017-04-21T06:41:14.515Z,43.53
2017-04-21T06:42:14.628Z,45.85
2017-04-21T06:43:14.642Z,43.88
2017-04-21T06:44:14.746Z,42.85
2017-04-21T06:45:14.856Z,42.88
2017-04-21T06:46:14.927Z,47.38
2017-04-21T06:47:15.010Z,43.90
2017-04-21T06:48:20.318Z,43.65
2017-04-21T06:49:20.470Z,44.30
2017-04-21T06:50:21.697Z,42.22
2017-04-21T06:51:21.725Z,42.17
2017-04-21T06:52:25.839Z,45.70
2017-04-21T06:53:25.935Z,42.63
2017-04-21T06:54:27.081Z,47.10
2017-04-21T06:55:28.249Z,43.50
2017-04-21T06:56:28.456Z,43.93
2017-04-21T06:57:29.676Z,42.62
2017-04-21T06:58:31.397Z,41.62
2017-04-21T06:59:32.757Z,44.03
2017-04-21T07:00:33.045Z,43.83
2017-04-21T07:01:34.283Z,41.50
2017-04-21T07:02:55.090Z,47.08
2017-04-21T07:03:55.250Z,41.03
2017-04-21T07:04:55.731Z,43.82
2017-04-21T07:05:56.635Z,45.08
2017-04-21T07:06:58.515Z,38.97
2017-04-21T07:07:59.118Z,43.58
2017-04-21T07:08:59.991Z,42.35
2017-04-21T07:10:00.317Z,44.32
2017-04-21T07:11:00.439Z,44.92
2017-04-21T07:12:00.721Z,40.85
2017-04-21T07:13:01.185Z,40.43
2017-04-21T07:14:02.088Z,36.95
2017-04-21T07:15:02.363Z,38.20
2017-04-21T07:16:02.462Z,45.83
2017-04-21T07:17:02.557Z,42.50
2017-04-21T07:18:02.886Z,44.88
2017-04-21T07:19:03.447Z,45.18
2017-04-21T07:20:04.313Z,43.60
2017-04-21T07:21:05.221Z,41.60
2017-04-21T07:22:05.991Z,42.62
2017-04-21T07:23:06.396Z,42.70
2017-04-21T07:24:06.534Z,43.37
2017-04-21T07:25:15.056Z,38.43
2017-04-21T07:26:15.939Z,41.28
2017-04-21T07:27:16.807Z,35.58
2017-04-21T07:28:17.606Z,40.08
2017-04-21T07:29:22.235Z,39.38
2017-04-21T07:30:22.731Z,42.27
2017-04-21T07:31:25.789Z,39.43
2017-04-21T07:32:33.803Z,44.17
2017-04-21T07:33:34.393Z,40.10
2017-04-21T07:34:36.375Z,39.63
2017-04-21T07:36:37.527Z,39.68
2017-04-21T07:38:38.104Z,36.80
2017-04-21T07:39:39.347Z,41.25
2017-04-21T07:40:41.503Z,44.07
2017-04-21T07:41:43.308Z,38.55
2017-04-21T07:42:43.600Z,44.95
2017-04-21T07:43:44.289Z,25.82
2017-04-21T07:44:45.227Z,46.58
2017-04-21T07:45:45.330Z,40.70
2017-04-21T07:46:46.157Z,44.92
2017-04-21T07:47:46.934Z,44.13
2017-04-21T07:48:47.295Z,42.78
2017-04-21T07:49:48.082Z,45.67
2017-04-21T07:50:48.130Z,40.05
2017-04-21T07:51:48.186Z,41.07
2017-04-21T07:52:48.214Z,44.35
2017-04-21T07:53:48.862Z,38.77
2017-04-21T07:54:49.670Z,39.65
2017-04-21T07:55:49.797Z,39.95
2017-04-21T07:56:55.370Z,40.48
2017-04-21T07:57:56.982Z,39.63
2017-04-21T07:59:02.103Z,39.13
2017-04-21T08:00:07.018Z,41.60
2017-04-21T08:01:07.156Z,38.08
2017-04-21T08:02:07.276Z,36.63
2017-04-21T08:03:07.325Z,39.12
2017-04-21T08:04:07.884Z,38.42
2017-04-21T08:05:08.036Z,38.87
2017-04-21T08:06:08.426Z,43.28
2017-04-21T08:07:10.356Z,41.37
2017-04-21T08:08:13.601Z,35.17
2017-04-21T08:09:17.957Z,39.58
2017-04-21T08:10:18.025Z,37.57
2017-04-21T08:11:18.089Z,39.40
2017-04-21T08:12:20.593Z,38.98
2017-04-21T08:13:21.401Z,41.08
2017-04-21T08:14:21.457Z,41.38
2017-04-21T08:15:21.647Z,36.78
2017-04-21T08:16:21.865Z,36.15
2017-04-21T08:17:22.667Z,37.75
2017-04-21T08:18:22.778Z,34.60
2017-04-21T08:19:22.828Z,35.13
2017-04-21T08:20:22.921Z,37.23
2017-04-21T08:21:23.035Z,25.82
2017-04-21T08:22:23.166Z,32.48
2017-04-21T08:23:23.235Z,31.85
2017-04-21T08:24:24.011Z,32.05
2017-04-21T08:25:24.012Z,36.08
2017-04-21T08:26:24.057Z,28.77
2017-04-21T08:27:24.116Z,30.83
2017-04-21T08:28:24.150Z,28.15
2017-04-21T08:29:25.399Z,33.30
2017-04-21T08:30:25.434Z,30.65
2017-04-21T08:31:26.408Z,28.90
2017-04-21T08:32:26.458Z,28.75
2017-04-21T08:33:26.533Z,28.58
2017-04-21T08:34:26.848Z,30.50
2017-04-21T08:35:26.956Z,28.85
2017-04-21T08:36:27.007Z,30.88
2017-04-21T08:37:27.825Z,34.15
2017-04-21T08:38:27.966Z,30.62
2017-04-21T08:39:28.062Z,28.88
2017-04-21T08:40:28.882Z,28.97
2017-04-21T08:41:29.681Z,35.25
2017-04-21T08:42:29.750Z,33.05
2017-04-21T08:43:29.893Z,30.75
2017-04-21T08:44:29.945Z,28.98
2017-04-21T08:45:29.981Z,29.85
2017-04-21T08:46:30.006Z,30.55
2017-04-21T08:47:30.070Z,31.58
2017-04-21T08:48:30.108Z,28.20
2017-04-21T08:49:30.489Z,31.78
2017-04-21T08:50:30.581Z,31.12
2017-04-21T08:51:31.374Z,29.53
2017-04-21T08:52:31.471Z,29.25
2017-04-21T08:53:31.592Z,29.33
2017-04-21T08:54:32.160Z,30.05
2017-04-21T08:55:32.568Z,30.50
2017-04-21T08:56:32.754Z,30.65
2017-04-21T08:57:32.841Z,31.52
2017-04-21T08:58:32.896Z,30.18
2017-04-21T08:59:34.117Z,29.82
2017-04-21T09:00:34.998Z,32.48
2017-04-21T09:01:35.040Z,31.73
2017-04-21T09:02:35.214Z,30.38
2017-04-21T09:03:35.373Z,28.68
2017-04-21T09:04:36.180Z,25.65
2017-04-21T09:05:36.354Z,30.33
2017-04-21T09:06:36.409Z,27.57
2017-04-21T09:07:36.426Z,28.68
2017-04-21T09:08:36.505Z,28.67
2017-04-21T09:09:36.610Z,28.08
2017-04-21T09:10:36.647Z,29.80
2017-04-21T09:11:37.477Z,29.42
2017-04-21T09:12:38.336Z,28.22
2017-04-21T09:13:38.394Z,23.15
2017-04-21T09:14:38.442Z,27.30
2017-04-21T09:15:38.525Z,27.37
2017-04-21T09:16:39.374Z,27.50
2017-04-21T09:17:39.510Z,27.07
2017-04-21T09:18:39.757Z,26.17
2017-04-21T09:19:40.551Z,27.07
2017-04-21T09:20:40.595Z,30.18
2017-04-21T09:21:40.660Z,24.92
2017-04-21T09:22:40.783Z,25.55
2017-04-21T09:23:40.837Z,19.80
2017-04-21T09:24:41.705Z,25.92
2017-04-21T09:25:41.762Z,30.27
2017-04-21T09:26:42.578Z,25.48
2017-04-21T09:27:42.647Z,27.32
2017-04-21T09:28:42.683Z,23.97
2017-04-21T09:29:42.809Z,23.32
2017-04-21T09:31:02.816Z,25.60
2017-04-21T09:31:43.010Z,24.38
2017-04-21T09:32:44.117Z,26.85
2017-04-21T09:33:44.371Z,25.58
2017-04-21T09:34:45.337Z,20.38
2017-04-21T09:35:45.428Z,24.18
2017-04-21T09:36:45.529Z,24.02
2017-04-21T09:37:46.395Z,24.28
2017-04-21T09:38:46.440Z,24.05
2017-04-21T09:39:46.466Z,26.52
2017-04-21T09:40:52.048Z,25.53
2017-04-21T09:41:52.097Z,24.20
2017-04-21T09:42:52.970Z,22.62
2017-04-21T09:43:53.228Z,27.38
2017-04-21T09:44:56.558Z,24.73
2017-04-21T09:45:57.176Z,23.32
2017-04-21T09:46:57.234Z,21.70
2017-04-21T09:47:57.291Z,25.28
2017-04-21T09:48:57.432Z,27.57
2017-04-21T09:49:57.894Z,24.50
2017-04-21T09:50:58.678Z,25.33
2017-04-21T09:52:58.828Z,23.77
2017-04-21T09:53:59.742Z,25.33
2017-04-21T09:54:06.160Z,25.60
2017-04-21T09:56:03.422Z,25.10
2017-04-21T09:59:18.407Z,24.63
2017-04-21T09:59:50.401Z,25.93
2017-04-21T10:02:28.138Z,22.60
2017-04-21T10:02:32.021Z,23.65
2017-04-21T10:05:03.878Z,22.73
2017-04-21T10:06:05.795Z,22.32
2017-04-21T10:06:12.330Z,23.58
2017-04-21T10:06:18.536Z,22.18
2017-04-21T10:06:49.235Z,22.87
2017-04-21T10:07:11.748Z,22.00
2017-04-21T10:07:55.467Z,21.10
2017-04-21T10:07:56.696Z,22.28
2017-04-21T10:08:06.876Z,21.53
2017-04-21T10:09:07.836Z,22.92
2017-04-21T10:10:08.974Z,21.22
2017-04-21T10:11:09.737Z,23.07
2017-04-21T10:12:09.785Z,19.48
2017-04-21T10:13:09.842Z,21.58
2017-04-21T10:14:09.927Z,22.48
2017-04-21T10:15:10.350Z,22.98
2017-04-21T10:16:10.405Z,19.23
2017-04-21T10:17:10.616Z,21.93
2017-04-21T10:18:10.717Z,20.93
2017-04-21T10:19:10.788Z,22.37
2017-04-21T10:20:11.185Z,20.40
2017-04-21T10:21:11.982Z,20.02
2017-04-21T10:22:11.989Z,23.37
2017-04-21T10:23:12.018Z,22.18
2017-04-21T10:24:12.058Z,23.27
2017-04-21T10:25:12.460Z,23.13
2017-04-21T10:26:13.261Z,21.80
2017-04-21T10:27:13.329Z,23.50
2017-04-21T10:28:13.374Z,23.92
2017-04-21T10:29:14.488Z,22.80
2017-04-21T10:30:14.936Z,20.52
2017-04-21T10:31:15.698Z,24.40
2017-04-21T10:32:15.714Z,22.13
2017-04-21T10:33:15.770Z,22.02
2017-04-21T10:34:15.845Z,23.28
2017-04-21T10:35:16.405Z,21.97
2017-04-21T10:36:17.167Z,22.67
2017-04-21T10:37:17.297Z,20.28
2017-04-21T10:38:17.299Z,19.70
2017-04-21T10:39:17.356Z,19.23
2017-04-21T10:40:18.481Z,22.03
2017-04-21T10:41:19.299Z,19.73
2017-04-21T10:42:19.314Z,20.58
2017-04-21T10:43:20.083Z,21.85
2017-04-21T10:44:20.363Z,21.23
2017-04-21T10:45:20.885Z,19.65
2017-04-21T10:46:21.666Z,20.97
2017-04-21T10:47:21.812Z,20.08
2017-04-21T10:48:22.604Z,21.52
2017-04-21T10:49:22.664Z,22.43
2017-04-21T10:50:23.175Z,20.13
2017-04-21T10:51:23.181Z,19.05
2017-04-21T10:52:23.207Z,19.37
2017-04-21T10:53:23.248Z,18.97
2017-04-21T10:54:23.239Z,18.15
2017-04-21T10:55:23.723Z,17.68
2017-04-21T10:56:23.831Z,16.65
2017-04-21T10:57:23.920Z,15.47
2017-04-21T10:58:23.966Z,17.22
2017-04-21T10:59:23.958Z,18.42
2017-04-21T11:00:24.283Z,17.10
2017-04-21T11:01:24.349Z,16.73
2017-04-21T11:02:25.153Z,15.63
2017-04-21T11:03:25.223Z,15.32
2017-04-21T11:04:25.223Z,16.45
2017-04-21T11:05:25.715Z,16.73
2017-04-21T11:06:26.535Z,14.40
2017-04-21T11:07:27.422Z,15.98
2017-04-21T11:08:27.522Z,15.10
2017-04-21T11:09:27.609Z,14.35
2017-04-21T11:10:28.008Z,13.20
2017-04-21T11:11:28.121Z,14.33
2017-04-21T11:12:28.224Z,13.77
2017-04-21T11:13:28.292Z,12.67
2017-04-21T11:14:28.353Z,13.85
2017-04-21T11:15:28.744Z,14.00
2017-04-21T11:16:29.506Z,12.80
2017-04-21T11:17:29.493Z,12.98
2017-04-21T11:18:30.304Z,13.23
2017-04-21T11:19:31.143Z,12.28
2017-04-21T11:20:31.494Z,14.03
2017-04-21T11:21:31.502Z,12.45
2017-04-21T11:22:31.560Z,12.73
2017-04-21T11:23:32.436Z,11.90
2017-04-21T11:24:32.457Z,12.33
2017-04-21T11:25:32.809Z,11.98
2017-04-21T11:26:32.860Z,13.38
2017-04-21T11:27:33.411Z,13.27
2017-04-21T11:28:33.449Z,12.75
2017-04-21T11:29:33.582Z,13.47
2017-04-21T11:30:34.056Z,12.73
2017-04-21T11:31:34.875Z,14.28
2017-04-21T11:32:35.003Z,12.82
2017-04-21T11:33:36.140Z,11.70
2017-04-21T11:34:36.250Z,13.28
2017-04-21T11:35:36.642Z,14.00
2017-04-21T11:36:37.433Z,13.40
2017-04-21T11:37:37.477Z,12.95
2017-04-21T11:38:37.529Z,12.90
2017-04-21T11:39:37.687Z,13.70
2017-04-21T11:40:38.834Z,11.98
2017-04-21T11:41:38.878Z,12.28
2017-04-21T11:42:39.113Z,12.65
2017-04-21T11:43:39.184Z,11.67
2017-04-21T11:44:39.215Z,13.98
2017-04-21T11:45:39.677Z,13.00
2017-04-21T11:46:39.742Z,12.25
2017-04-21T11:47:39.788Z,13.08
2017-04-21T11:48:39.805Z,13.57
2017-04-21T11:49:40.697Z,14.45
2017-04-21T11:50:41.163Z,14.12
2017-04-21T11:51:48.990Z,14.58
2017-04-21T11:52:58.049Z,13.13
2017-04-21T11:54:00.401Z,13.25
2017-04-21T11:55:00.437Z,13.33
2017-04-21T11:56:02.482Z,13.17
2017-04-21T11:57:04.187Z,13.43
2017-04-21T11:58:04.303Z,14.28
2017-04-21T11:59:04.415Z,13.57
2017-04-21T12:00:06.748Z,15.63
2017-04-21T12:01:07.302Z,15.42
2017-04-21T12:02:08.173Z,13.17
2017-04-21T12:03:08.217Z,14.60
2017-04-21T12:04:08.203Z,15.00
2017-04-21T12:05:08.282Z,15.87
2017-04-21T12:06:09.403Z,15.47
2017-04-21T12:07:10.183Z,15.07
2017-04-21T12:08:12.950Z,15.42
2017-04-21T12:09:14.402Z,14.55
2017-04-21T12:10:15.823Z,15.60
2017-04-21T12:11:16.287Z,16.98
2017-04-21T12:12:16.639Z,17.47
2017-04-21T12:13:17.407Z,17.03
2017-04-21T12:14:26.138Z,18.00
2017-04-21T12:15:29.173Z,17.55
2017-04-21T12:16:30.524Z,15.95
2017-04-21T12:17:31.644Z,18.10
2017-04-21T12:18:33.602Z,17.77
2017-04-21T12:19:34.678Z,19.33
2017-04-21T12:20:35.993Z,17.68
2017-04-21T12:21:36.449Z,15.47
2017-04-21T12:22:36.691Z,16.67
2017-04-21T12:23:36.705Z,18.48
2017-04-21T12:24:36.823Z,16.32
2017-04-21T12:25:36.842Z,17.85
2017-04-21T12:26:37.291Z,17.62
2017-04-21T12:27:38.123Z,17.65
2017-04-21T12:28:38.916Z,16.45
2017-04-21T12:29:39.755Z,17.92
2017-04-21T12:30:40.537Z,17.87
2017-04-21T12:31:41.006Z,17.50
2017-04-21T12:32:41.793Z,17.68
2017-04-21T12:33:41.794Z,17.50
2017-04-21T12:34:41.841Z,18.70
2017-04-21T12:35:42.766Z,19.97
2017-04-21T12:36:44.014Z,17.45
2017-04-21T12:37:44.096Z,16.63
2017-04-21T12:38:44.131Z,20.02
2017-04-21T12:39:45.022Z,19.88
2017-04-21T12:40:45.115Z,19.47
2017-04-21T12:41:45.589Z,18.20
2017-04-21T12:42:46.447Z,16.55
2017-04-21T12:43:46.573Z,16.67
2017-04-21T12:44:46.608Z,17.77
2017-04-21T12:45:47.413Z,15.45
2017-04-21T12:46:47.872Z,14.48
2017-04-21T12:47:47.931Z,13.85
2017-04-21T12:48:48.169Z,14.53
2017-04-21T12:49:48.353Z,13.92
2017-04-21T12:50:48.401Z,14.82
2017-04-21T12:51:49.540Z,15.47
2017-04-21T12:52:49.607Z,15.52
2017-04-21T12:53:49.685Z,13.77
2017-04-21T12:54:49.999Z,17.37
2017-04-21T12:55:50.141Z,16.62
2017-04-21T12:56:50.600Z,17.18
2017-04-21T12:57:50.652Z,20.02
2017-04-21T12:58:50.685Z,17.90
2017-04-21T12:59:51.612Z,18.85
2017-04-21T13:00:52.528Z,17.15
2017-04-21T13:01:52.987Z,18.25